createdAt,value
2022-11-01T00:01:21.534Z,3.70
2022-11-01T00:03:48.890Z,4.72
2022-11-01T00:06:16.372Z,4.45
2022-11-01T00:08:43.728Z,5.25
2022-11-01T00:11:12.695Z,4.55
2022-11-01T00:13:41.383Z,5.28
2022-11-01T00:16:09.024Z,5.45
2022-11-01T00:18:36.457Z,4.47
2022-11-01T00:21:03.792Z,5.15
2022-11-01T00:23:31.148Z,4.93
2022-11-01T00:25:59.820Z,5.35
2022-11-01T00:28:27.253Z,4.82
2022-11-01T00:30:56.654Z,5.35
2022-11-01T00:33:23.971Z,5.82
2022-11-01T00:35:51.371Z,6.55
2022-11-01T00:38:19.326Z,5.65
2022-11-01T00:40:46.723Z,6.22
2022-11-01T00:43:14.574Z,5.53
2022-11-01T00:45:43.950Z,5.80
2022-11-01T00:48:12.834Z,5.85
2022-11-01T00:50:40.485Z,5.45
2022-11-01T00:53:08.230Z,4.70
2022-11-01T00:55:35.545Z,4.65
2022-11-01T00:58:03.193Z,5.05
2022-11-01T01:00:30.687Z,5.07
2022-11-01T01:02:58.050Z,5.05
2022-11-01T01:05:27.026Z,4.80
2022-11-01T01:07:54.380Z,5.25
2022-11-01T01:10:21.864Z,4.53
2022-11-01T01:12:50.280Z,5.10
2022-11-01T01:15:17.674Z,7.05
2022-11-01T01:17:44.996Z,6.53
2022-11-01T01:20:12.563Z,6.18
2022-11-01T01:22:41.504Z,6.65
2022-11-01T01:25:09.302Z,7.38
2022-11-01T01:27:37.218Z,6.50
2022-11-01T01:30:05.284Z,5.25
2022-11-01T01:32:32.585Z,4.60
2022-11-01T01:34:59.924Z,4.45
2022-11-01T01:37:27.452Z,4.43
2022-11-01T01:39:56.140Z,4.50
2022-11-01T01:42:27.617Z,4.28
2022-11-01T01:45:16.435Z,3.97
2022-11-01T01:47:45.351Z,4.15
2022-11-01T01:50:13.903Z,4.47
2022-11-01T01:52:43.597Z,3.85
2022-11-01T01:55:13.439Z,2.88
2022-11-01T01:57:42.044Z,3.90
2022-11-01T02:00:11.396Z,3.58
2022-11-01T02:02:38.877Z,3.70
2022-11-01T02:05:11.210Z,3.72
2022-11-01T02:07:38.505Z,4.53
2022-11-01T02:10:06.834Z,4.07
2022-11-01T02:12:37.196Z,4.35
2022-11-01T02:15:04.640Z,3.55
2022-11-01T02:17:34.239Z,3.50
2022-11-01T02:20:05.520Z,3.17
2022-11-01T02:25:24.413Z,3.80
2022-11-01T02:28:16.850Z,4.10
2022-11-01T02:30:46.354Z,3.63
2022-11-01T02:33:18.176Z,4.10
2022-11-01T02:35:52.603Z,3.03
2022-11-01T02:38:22.331Z,4.35
2022-11-01T02:40:53.462Z,3.35
2022-11-01T02:43:23.064Z,3.53
2022-11-01T02:45:50.939Z,3.45
2022-11-01T02:48:20.891Z,3.65
2022-11-01T02:50:50.438Z,3.42
2022-11-01T02:53:17.780Z,3.65
2022-11-01T02:58:21.125Z,3.75
2022-11-01T03:00:48.501Z,4.03
2022-11-01T03:03:18.170Z,3.80
2022-11-01T03:05:51.618Z,3.40
2022-11-01T03:08:19.963Z,3.80
2022-11-01T03:10:51.186Z,3.45
2022-11-01T03:13:28.908Z,3.50
2022-11-01T03:16:00.180Z,3.92
2022-11-01T03:18:30.067Z,3.42
2022-11-01T03:21:00.927Z,3.50
2022-11-01T03:23:33.427Z,3.70
2022-11-01T03:26:02.604Z,3.72
2022-11-01T03:28:32.141Z,3.83
2022-11-01T03:31:02.131Z,3.40
2022-11-01T03:33:30.030Z,3.83
2022-11-01T03:36:02.707Z,3.33
2022-11-01T03:38:33.527Z,3.20
2022-11-01T03:41:02.049Z,3.67
2022-11-01T03:43:30.977Z,3.60
2022-11-01T03:45:58.317Z,3.03
2022-11-01T03:48:25.966Z,2.35
2022-11-01T03:50:56.135Z,3.60
2022-11-01T03:53:25.197Z,3.58
2022-11-01T03:55:52.516Z,3.10
2022-11-01T03:58:19.901Z,3.63
2022-11-01T04:00:47.365Z,3.08
2022-11-01T04:03:14.875Z,3.90
2022-11-01T04:05:43.213Z,2.85
2022-11-01T04:08:11.516Z,3.53
2022-11-01T04:10:40.187Z,3.30
2022-11-01T04:13:07.507Z,3.33
2022-11-01T04:15:52.174Z,2.88
2022-11-01T04:18:38.185Z,3.25
2022-11-01T04:21:07.271Z,3.25
2022-11-01T04:23:34.963Z,4.70
2022-11-01T04:26:05.080Z,3.83
2022-11-01T04:28:32.570Z,3.35
2022-11-01T04:30:59.988Z,3.00
2022-11-01T04:33:27.372Z,3.28
2022-11-01T04:35:54.669Z,3.33
2022-11-01T04:38:21.993Z,3.30
2022-11-01T04:40:49.329Z,2.95
2022-11-01T04:43:17.980Z,3.25
2022-11-01T04:45:45.585Z,3.78
2022-11-01T04:48:13.917Z,3.28
2022-11-01T04:50:42.245Z,3.17
2022-11-01T04:53:09.856Z,2.80
2022-11-01T04:55:37.355Z,3.45
2022-11-01T04:58:06.585Z,3.63
2022-11-01T05:00:35.441Z,3.83
2022-11-01T05:03:03.993Z,3.55
2022-11-01T05:05:32.043Z,3.75
2022-11-01T05:08:02.922Z,3.22
2022-11-01T05:10:30.599Z,3.80
2022-11-01T05:12:57.996Z,3.30
2022-11-01T05:15:25.287Z,3.45
2022-11-01T05:17:54.245Z,3.42
2022-11-01T05:20:21.604Z,3.10
2022-11-01T05:22:49.320Z,3.38
2022-11-01T05:25:17.493Z,3.38
2022-11-01T05:27:44.883Z,2.92
2022-11-01T05:30:12.876Z,3.45
2022-11-01T05:32:40.162Z,3.20
2022-11-01T05:35:09.239Z,2.72
2022-11-01T05:37:36.801Z,3.17
2022-11-01T05:40:04.373Z,2.67
2022-11-01T05:42:31.689Z,2.90
2022-11-01T05:44:59.049Z,3.08
2022-11-01T05:47:26.444Z,2.55
2022-11-01T05:49:53.861Z,3.35
2022-11-01T05:52:22.505Z,3.00
2022-11-01T05:54:49.840Z,2.70
2022-11-01T05:57:17.130Z,3.00
2022-11-01T05:59:44.450Z,2.80
2022-11-01T06:02:11.855Z,3.28
2022-11-01T06:04:39.246Z,3.03
2022-11-01T06:07:06.608Z,2.85
2022-11-01T06:09:35.299Z,2.95
2022-11-01T06:12:02.594Z,2.75
2022-11-01T06:14:29.959Z,2.50
2022-11-01T06:16:57.342Z,2.63
2022-11-01T06:19:24.675Z,2.00
2022-11-01T06:21:51.956Z,2.13
2022-11-01T06:24:19.345Z,2.30
2022-11-01T06:26:48.009Z,2.10
2022-11-01T06:29:16.073Z,2.03
2022-11-01T06:31:43.441Z,2.47
2022-11-01T06:34:10.743Z,2.25
2022-11-01T06:36:38.205Z,2.13
2022-11-01T06:39:05.626Z,2.00
2022-11-01T06:41:33.028Z,1.75
2022-11-01T06:44:01.903Z,1.60
2022-11-01T06:46:29.233Z,1.67
2022-11-01T06:48:56.587Z,1.10
2022-11-01T06:51:23.927Z,1.40
2022-11-01T06:53:51.306Z,1.60
2022-11-01T06:56:18.638Z,1.80
2022-11-01T06:58:49.028Z,1.20
2022-11-01T07:01:18.985Z,1.42
2022-11-01T07:03:46.531Z,1.55
2022-11-01T07:06:14.429Z,1.20
2022-11-01T07:08:41.805Z,1.25
2022-11-01T07:11:09.108Z,1.30
2022-11-01T07:13:38.103Z,1.20
2022-11-01T07:16:06.168Z,1.55
2022-11-01T07:18:34.854Z,1.80
2022-11-01T07:21:02.836Z,1.05
2022-11-01T07:23:30.293Z,1.10
2022-11-01T07:25:57.769Z,1.02
2022-11-01T07:28:25.425Z,1.30
2022-11-01T07:30:53.324Z,0.75
2022-11-01T07:33:20.626Z,2.00
2022-11-01T07:35:49.850Z,0.70
2022-11-01T07:38:17.709Z,1.48
2022-11-01T07:40:49.376Z,0.75
2022-11-01T07:43:17.370Z,1.63
2022-11-01T07:45:45.000Z,1.33
2022-11-01T07:48:13.241Z,1.13
2022-11-01T07:50:41.519Z,1.30
2022-11-01T07:53:11.283Z,1.40
2022-11-01T07:55:38.901Z,1.20
2022-11-01T07:58:06.902Z,1.52
2022-11-01T08:03:03.287Z,1.45
2022-11-01T08:05:31.501Z,1.23
2022-11-01T08:07:59.252Z,1.38
2022-11-01T08:10:28.717Z,1.75
2022-11-01T08:13:01.114Z,2.00
2022-11-01T08:15:28.438Z,1.77
2022-11-01T08:17:55.987Z,2.42
2022-11-01T08:20:23.297Z,1.80
2022-11-01T08:22:50.623Z,2.10
2022-11-01T08:25:18.397Z,2.13
2022-11-01T08:27:47.097Z,1.90
2022-11-01T08:30:14.835Z,1.58
2022-11-01T08:32:42.195Z,2.00
2022-11-01T08:35:11.770Z,1.75
2022-11-01T08:37:39.114Z,1.52
2022-11-01T08:40:06.937Z,1.52
2022-11-01T08:42:34.288Z,1.90
2022-11-01T08:45:02.926Z,1.70
2022-11-01T08:47:30.252Z,1.42
2022-11-01T08:49:57.589Z,1.70
2022-11-01T08:52:25.453Z,1.60
2022-11-01T08:54:52.749Z,1.77
2022-11-01T08:57:20.089Z,1.80
2022-11-01T08:59:47.454Z,2.00
2022-11-01T09:02:16.272Z,1.90
2022-11-01T09:04:45.644Z,1.50
2022-11-01T09:07:12.990Z,1.70
2022-11-01T09:09:40.335Z,2.25
2022-11-01T09:12:12.302Z,1.52
2022-11-01T09:14:41.721Z,2.40
2022-11-01T09:17:09.069Z,2.28
2022-11-01T09:19:37.915Z,1.80
2022-11-01T09:22:05.245Z,1.33
2022-11-01T09:24:32.556Z,2.08
2022-11-01T09:27:00.133Z,1.52
2022-11-01T09:29:27.534Z,1.70
2022-11-01T09:31:55.259Z,1.73
2022-11-01T09:34:22.921Z,2.15
2022-11-01T09:36:51.662Z,1.70
2022-11-01T09:39:21.972Z,1.83
2022-11-01T09:41:50.691Z,1.70
2022-11-01T09:44:19.627Z,1.88
2022-11-01T09:46:48.295Z,2.10
2022-11-01T09:49:18.725Z,1.77
2022-11-01T09:51:46.122Z,1.50
2022-11-01T09:54:14.790Z,1.48
2022-11-01T09:56:42.999Z,1.98
2022-11-01T09:59:15.744Z,1.42
2022-11-01T10:01:47.603Z,1.55
2022-11-01T10:04:33.809Z,1.45
2022-11-01T10:07:03.706Z,1.65
2022-11-01T10:09:38.910Z,1.70
2022-11-01T10:12:13.509Z,1.85
2022-11-01T10:14:50.834Z,1.83
2022-11-01T10:17:19.987Z,1.27
2022-11-01T10:19:48.742Z,1.00
2022-11-01T10:22:18.090Z,1.50
2022-11-01T10:24:48.674Z,1.25
2022-11-01T10:27:19.699Z,1.63
2022-11-01T10:29:49.239Z,1.52
2022-11-01T10:32:21.880Z,1.08
2022-11-01T10:34:49.539Z,1.52
2022-11-01T10:37:22.038Z,1.33
2022-11-01T10:39:57.999Z,1.83
2022-11-01T10:42:28.956Z,1.20
2022-11-01T10:44:57.669Z,1.20
2022-11-01T10:47:25.638Z,1.42
2022-11-01T10:50:10.119Z,1.95
2022-11-01T10:52:43.375Z,1.90
2022-11-01T10:55:15.041Z,1.73
2022-11-01T10:57:45.502Z,1.60
2022-11-01T11:00:15.934Z,1.20
2022-11-01T11:02:45.518Z,1.60
2022-11-01T11:05:13.465Z,1.67
2022-11-01T11:07:40.995Z,1.83
2022-11-01T11:10:19.601Z,1.80
2022-11-01T11:12:51.608Z,1.60
2022-11-01T11:15:21.076Z,1.25
2022-11-01T11:17:50.013Z,2.67
2022-11-01T11:20:26.194Z,1.63
2022-11-01T11:22:53.582Z,1.77
2022-11-01T11:25:29.409Z,1.95
2022-11-01T11:27:56.835Z,1.83
2022-11-01T11:30:28.936Z,2.10
2022-11-01T11:32:58.484Z,2.00
2022-11-01T11:35:27.496Z,2.47
2022-11-01T11:37:56.114Z,1.75
2022-11-01T11:40:25.794Z,1.98
2022-11-01T11:42:54.043Z,1.80
2022-11-01T11:45:27.233Z,1.70
2022-11-01T11:47:55.793Z,1.83
2022-11-01T11:50:32.720Z,2.00
2022-11-01T11:53:06.343Z,1.80
2022-11-01T11:55:38.785Z,2.03
2022-11-01T11:58:07.217Z,1.80
2022-11-01T12:00:35.736Z,1.90
2022-11-01T12:03:05.449Z,1.90
2022-11-01T12:05:34.152Z,1.60
2022-11-01T12:08:01.891Z,1.75
2022-11-01T12:10:31.134Z,1.73
2022-11-01T12:13:00.286Z,2.15
2022-11-01T12:15:28.647Z,1.63
2022-11-01T12:17:56.417Z,2.63
2022-11-01T12:20:25.075Z,2.00
2022-11-01T12:22:55.766Z,2.67
2022-11-01T12:25:24.745Z,1.95
2022-11-01T12:27:57.434Z,1.40
2022-11-01T12:30:27.103Z,1.83
2022-11-01T12:32:55.643Z,1.95
2022-11-01T12:35:25.743Z,2.03
2022-11-01T12:37:56.555Z,2.00
2022-11-01T12:40:25.293Z,1.63
2022-11-01T12:42:54.943Z,1.60
2022-11-01T12:45:25.661Z,1.58
2022-11-01T12:47:58.170Z,1.60
2022-11-01T12:50:27.532Z,1.88
2022-11-01T12:52:57.374Z,1.48
2022-11-01T12:55:29.717Z,2.05
2022-11-01T12:57:57.093Z,2.25
2022-11-01T13:00:25.794Z,1.75
2022-11-01T13:03:00.642Z,2.13
2022-11-01T13:05:32.240Z,1.60
2022-11-01T13:08:05.333Z,2.00
2022-11-01T13:10:34.143Z,1.90
2022-11-01T13:13:06.494Z,1.30
2022-11-01T13:15:36.758Z,2.20
2022-11-01T13:18:10.576Z,2.33
2022-11-01T13:20:48.346Z,2.25
2022-11-01T13:23:22.377Z,1.90
2022-11-01T13:25:52.198Z,1.67
2022-11-01T13:28:25.032Z,2.17
2022-11-01T13:30:59.160Z,2.10
2022-11-01T13:33:31.422Z,2.40
2022-11-01T13:36:01.639Z,1.40
2022-11-01T13:38:35.014Z,1.70
2022-11-01T13:41:07.410Z,1.67
2022-11-01T13:43:37.926Z,1.30
2022-11-01T13:46:29.079Z,1.45
2022-11-01T13:49:12.380Z,2.50
2022-11-01T13:51:41.498Z,2.22
2022-11-01T13:54:15.803Z,2.47
2022-11-01T13:56:45.600Z,2.15
2022-11-01T13:59:19.838Z,1.75
2022-11-01T14:01:47.508Z,2.30
2022-11-01T14:04:39.340Z,1.30
2022-11-01T14:07:14.153Z,1.73
2022-11-01T14:09:45.889Z,1.45
2022-11-01T14:12:28.168Z,1.60
2022-11-01T14:14:55.549Z,2.15
2022-11-01T14:17:41.582Z,2.03
2022-11-01T14:20:28.383Z,1.85
2022-11-01T14:22:57.505Z,2.17
2022-11-01T14:25:31.003Z,2.60
2022-11-01T14:28:13.299Z,2.88
2022-11-01T14:30:43.155Z,1.52
2022-11-01T14:33:14.060Z,1.73
2022-11-01T14:35:43.657Z,2.10
2022-11-01T14:38:14.312Z,1.83
2022-11-01T14:40:42.913Z,1.98
2022-11-01T14:43:16.401Z,2.40
2022-11-01T14:45:46.255Z,1.88
2022-11-01T14:48:16.915Z,2.10
2022-11-01T14:50:47.598Z,1.85
2022-11-01T14:53:20.447Z,1.77
2022-11-01T14:55:47.891Z,1.60
2022-11-01T14:58:22.289Z,1.88
2022-11-01T15:00:50.705Z,1.70
2022-11-01T15:03:21.189Z,1.50
2022-11-01T15:05:49.946Z,1.33
2022-11-01T15:08:23.377Z,2.35
2022-11-01T15:10:50.922Z,2.40
2022-11-01T15:13:20.062Z,1.40
2022-11-01T15:15:52.270Z,2.25
2022-11-01T15:18:21.025Z,2.08
2022-11-01T15:20:49.597Z,1.73
2022-11-01T15:23:19.411Z,1.73
2022-11-01T15:25:53.439Z,1.70
2022-11-01T15:28:23.527Z,1.43
2022-11-01T15:30:54.276Z,2.67
2022-11-01T15:33:24.021Z,1.98
2022-11-01T15:35:56.098Z,1.70
2022-11-01T15:38:23.495Z,1.95
2022-11-01T15:40:52.135Z,2.20
2022-11-01T15:43:21.889Z,2.10
2022-11-01T15:45:50.203Z,1.52
2022-11-01T15:48:19.691Z,2.15
2022-11-01T15:50:48.032Z,1.55
2022-11-01T15:53:18.094Z,1.75
2022-11-01T15:55:46.148Z,1.83
2022-11-01T15:58:17.404Z,1.95
2022-11-01T16:00:47.819Z,1.95
2022-11-01T16:03:16.985Z,2.00
2022-11-01T16:05:45.725Z,2.13
2022-11-01T16:08:19.877Z,1.60
2022-11-01T16:10:47.246Z,1.65
2022-11-01T16:13:16.891Z,2.00
2022-11-01T16:15:58.511Z,1.88
2022-11-01T16:18:26.368Z,1.92
2022-11-01T16:21:01.296Z,1.15
2022-11-01T16:26:04.081Z,1.67
2022-11-01T16:31:00.113Z,1.83
2022-11-01T16:33:31.549Z,1.42
2022-11-01T16:35:59.520Z,1.50
2022-11-01T16:38:29.306Z,2.47
2022-11-01T16:40:58.227Z,1.50
2022-11-01T16:43:26.647Z,1.73
2022-11-01T16:45:54.024Z,2.13
2022-11-01T16:48:24.405Z,1.70
2022-11-01T16:50:52.500Z,2.22
2022-11-01T16:53:19.867Z,1.92
2022-11-01T16:55:47.959Z,2.03
2022-11-01T16:58:16.938Z,2.13
2022-11-01T17:00:51.704Z,1.95
2022-11-01T17:05:50.431Z,2.10
2022-11-01T17:10:48.710Z,2.30
2022-11-01T17:13:16.062Z,1.38
2022-11-01T17:15:45.064Z,3.17
2022-11-01T17:18:14.749Z,3.17
2022-11-01T17:20:42.889Z,2.75
2022-11-01T17:23:14.312Z,2.40
2022-11-01T17:25:45.832Z,1.85
2022-11-01T17:28:13.334Z,2.25
2022-11-01T17:30:40.867Z,2.40
2022-11-01T17:33:08.309Z,1.73
2022-11-01T17:35:36.247Z,2.28
2022-11-01T17:38:03.987Z,2.80
2022-11-01T17:40:33.228Z,2.25
2022-11-01T17:43:03.658Z,2.80
2022-11-01T17:45:31.022Z,2.10
2022-11-01T17:47:59.089Z,2.95
2022-11-01T17:50:26.382Z,1.77
2022-11-01T17:52:54.167Z,2.95
2022-11-01T17:55:21.604Z,2.25
2022-11-01T17:57:50.296Z,2.42
2022-11-01T18:00:18.165Z,2.25
2022-11-01T18:02:45.590Z,3.20
2022-11-01T18:05:13.719Z,2.80
2022-11-01T18:07:41.846Z,2.58
2022-11-01T18:10:16.527Z,2.45
2022-11-01T18:12:51.739Z,3.42
2022-11-01T18:15:23.843Z,2.33
2022-11-01T18:17:56.735Z,2.83
2022-11-01T18:20:31.536Z,3.08
2022-11-01T18:23:01.392Z,2.70
2022-11-01T18:25:32.449Z,2.13
2022-11-01T18:28:02.971Z,3.10
2022-11-01T18:30:31.886Z,3.55
2022-11-01T18:33:02.898Z,3.70
2022-11-01T18:35:32.665Z,3.95
2022-11-01T18:38:18.705Z,3.70
2022-11-01T18:40:55.479Z,2.50
2022-11-01T18:43:22.819Z,2.65
2022-11-01T18:46:19.170Z,2.85
2022-11-01T18:48:38.957Z,2.75
2022-11-01T18:51:10.634Z,2.65
2022-11-01T18:53:38.116Z,2.30
2022-11-01T18:56:18.404Z,2.53
2022-11-01T18:58:45.845Z,2.83
2022-11-01T19:01:14.976Z,2.85
2022-11-01T19:03:42.635Z,2.92
2022-11-01T19:06:14.054Z,2.33
2022-11-01T19:08:41.439Z,2.28
2022-11-01T19:11:11.742Z,2.88
2022-11-01T19:13:39.222Z,2.95
2022-11-01T19:16:07.270Z,2.92
2022-11-01T19:18:40.685Z,3.03
2022-11-01T19:21:14.294Z,3.08
2022-11-01T19:23:42.811Z,3.20
2022-11-01T19:26:14.133Z,2.40
2022-11-01T19:28:41.599Z,3.30
2022-11-01T19:31:16.182Z,2.65
2022-11-01T19:33:45.954Z,2.55
2022-11-01T19:36:15.054Z,3.33
2022-11-01T19:38:44.922Z,3.33
2022-11-01T19:41:13.618Z,2.72
2022-11-01T19:43:41.463Z,2.40
2022-11-01T19:46:12.085Z,2.53
2022-11-01T19:48:39.984Z,2.30
2022-11-01T19:51:13.776Z,3.25
2022-11-01T19:53:41.112Z,2.88
2022-11-01T19:56:10.698Z,2.75
2022-11-01T19:58:42.136Z,2.10
2022-11-01T20:01:45.113Z,2.10
2022-11-01T20:04:17.255Z,3.33
2022-11-01T20:06:48.461Z,2.67
2022-11-01T20:09:19.526Z,2.28
2022-11-01T20:11:46.936Z,2.83
2022-11-01T20:14:14.337Z,2.78
2022-11-01T20:16:41.788Z,2.13
2022-11-01T20:19:13.128Z,2.75
2022-11-01T20:21:43.836Z,2.67
2022-11-01T20:24:12.533Z,2.63
2022-11-01T20:26:40.104Z,2.33
2022-11-01T20:29:07.395Z,2.50
2022-11-01T20:31:34.760Z,2.45
2022-11-01T20:34:02.092Z,2.28
2022-11-01T20:36:29.524Z,2.58
2022-11-01T20:38:56.841Z,2.42
2022-11-01T20:41:25.593Z,2.17
2022-11-01T20:43:52.949Z,3.25
2022-11-01T20:46:20.305Z,2.92
2022-11-01T20:48:48.134Z,3.15
2022-11-01T20:51:15.577Z,3.60
2022-11-01T20:53:42.918Z,3.63
2022-11-01T20:56:10.361Z,3.08
2022-11-01T20:58:40.763Z,2.75
2022-11-01T21:01:13.495Z,2.30
2022-11-01T21:03:40.901Z,2.60
2022-11-01T21:06:14.095Z,2.20
2022-11-01T21:08:42.981Z,3.47
2022-11-01T21:11:13.110Z,2.80
2022-11-01T21:13:45.100Z,2.72
2022-11-01T21:16:17.179Z,2.45
2022-11-01T21:18:45.743Z,2.55
2022-11-01T21:21:34.164Z,1.83
2022-11-01T21:24:22.609Z,2.08
2022-11-01T21:26:55.752Z,2.92
2022-11-01T21:29:27.398Z,2.88
2022-11-01T21:31:54.845Z,3.63
2022-11-01T21:34:25.221Z,3.35
2022-11-01T21:36:53.095Z,2.83
2022-11-01T21:39:21.681Z,2.38
2022-11-01T21:41:49.470Z,2.20
2022-11-01T21:44:25.231Z,2.40
2022-11-01T21:46:53.932Z,1.98
2022-11-01T21:49:29.398Z,1.98
2022-11-01T21:51:58.848Z,3.00
2022-11-01T21:54:26.332Z,2.38
2022-11-01T21:56:53.794Z,3.95
2022-11-01T21:59:21.218Z,2.20
2022-11-01T22:01:50.242Z,2.30
2022-11-01T22:04:17.769Z,2.33
2022-11-01T22:06:45.663Z,2.15
2022-11-01T22:09:13.019Z,2.55
2022-11-01T22:11:40.629Z,2.53
2022-11-01T22:14:08.249Z,2.20
2022-11-01T22:16:35.826Z,2.28
2022-11-01T22:19:04.815Z,3.13
2022-11-01T22:21:33.107Z,2.67
2022-11-01T22:24:00.826Z,2.08
2022-11-01T22:26:28.296Z,2.70
2022-11-01T22:28:55.650Z,2.15
2022-11-01T22:31:23.287Z,3.05
2022-11-01T22:33:52.168Z,2.45
2022-11-01T22:36:23.024Z,2.03
2022-11-01T22:38:50.374Z,1.67
2022-11-01T22:41:21.184Z,2.78
2022-11-01T22:43:49.297Z,2.80
2022-11-01T22:46:21.620Z,2.42
2022-11-01T22:48:49.661Z,2.10
2022-11-01T22:51:21.216Z,2.80
2022-11-01T22:53:50.070Z,1.45
2022-11-01T22:56:17.421Z,1.83
2022-11-01T22:58:44.753Z,2.33
2022-11-01T23:01:19.529Z,3.33
2022-11-01T23:03:51.759Z,1.67
2022-11-01T23:06:26.126Z,4.00
2022-11-01T23:08:58.740Z,2.75
2022-11-01T23:11:45.247Z,2.53
2022-11-01T23:14:40.060Z,2.38
2022-11-01T23:17:18.811Z,2.45
2022-11-01T23:19:46.095Z,2.55
2022-11-01T23:22:15.296Z,2.97
2022-11-01T23:24:43.995Z,2.47
2022-11-01T23:27:11.710Z,2.13
2022-11-01T23:29:39.295Z,2.08
2022-11-01T23:32:06.630Z,2.55
2022-11-01T23:34:33.957Z,2.33
2022-11-01T23:37:01.329Z,2.17
2022-11-01T23:39:32.783Z,2.53
2022-11-01T23:42:01.497Z,2.17
2022-11-01T23:44:30.546Z,2.20
2022-11-01T23:46:59.914Z,2.35
2022-11-01T23:49:30.992Z,2.58
2022-11-01T23:51:58.876Z,3.10
2022-11-01T23:54:31.329Z,2.38
2022-11-01T23:56:58.636Z,2.90
2022-11-01T23:59:27.306Z,2.40
